sensor_id;sensor_type;location;lat;lon;timestamp;pressure;altitude;pressure_sealevel;temperature;humidity
49342;BME280;35210;41.606;-87.602;2023-06-22T00:00:04;99704.06;;;27.96;58.34
49342;BME280;35210;41.606;-87.602;2023-06-22T00:02:38;99702.84;;;27.92;58.98
49342;BME280;35210;41.606;-87.602;2023-06-22T00:05:06;99711.59;;;27.94;59.32
49342;BME280;35210;41.606;-87.602;2023-06-22T00:07:34;99707.81;;;27.95;58.71
49342;BME280;35210;41.606;-87.602;2023-06-22T00:10:03;99716.75;;;27.77;58.62
49342;BME280;35210;41.606;-87.602;2023-06-22T00:12:31;99716.47;;;27.61;59.46
49342;BME280;35210;41.606;-87.602;2023-06-22T00:15:01;99711.38;;;27.46;59.99
49342;BME280;35210;41.606;-87.602;2023-06-22T00:17:29;99708.59;;;27.28;60.67
49342;BME280;35210;41.606;-87.602;2023-06-22T00:19:57;99713.84;;;27.23;60.99
49342;BME280;35210;41.606;-87.602;2023-06-22T00:22:27;99712.41;;;27.20;61.21
49342;BME280;35210;41.606;-87.602;2023-06-22T00:24:56;99715.16;;;27.13;61.76
49342;BME280;35210;41.606;-87.602;2023-06-22T00:27:24;99724.81;;;27.03;61.30
49342;BME280;35210;41.606;-87.602;2023-06-22T00:29:52;99712.13;;;26.90;61.81
49342;BME280;35210;41.606;-87.602;2023-06-22T00:32:22;99718.00;;;26.87;61.67
49342;BME280;35210;41.606;-87.602;2023-06-22T00:34:50;99733.66;;;26.78;62.30
49342;BME280;35210;41.606;-87.602;2023-06-22T00:37:18;99733.56;;;26.60;62.94
49342;BME280;35210;41.606;-87.602;2023-06-22T00:39:48;99720.06;;;26.47;63.29
49342;BME280;35210;41.606;-87.602;2023-06-22T00:42:17;99719.47;;;26.45;63.65
49342;BME280;35210;41.606;-87.602;2023-06-22T00:44:45;99720.94;;;26.41;63.76
49342;BME280;35210;41.606;-87.602;2023-06-22T00:47:14;99718.03;;;26.36;64.00
49342;BME280;35210;41.606;-87.602;2023-06-22T00:49:47;99714.69;;;26.27;64.55
49342;BME280;35210;41.606;-87.602;2023-06-22T00:52:17;99717.59;;;26.26;64.42
49342;BME280;35210;41.606;-87.602;2023-06-22T00:54:47;99712.00;;;26.14;64.65
49342;BME280;35210;41.606;-87.602;2023-06-22T00:57:17;99717.84;;;26.11;65.00
49342;BME280;35210;41.606;-87.602;2023-06-22T00:59:48;99715.97;;;26.11;64.99
49342;BME280;35210;41.606;-87.602;2023-06-22T01:02:16;99709.75;;;26.04;65.21
49342;BME280;35210;41.606;-87.602;2023-06-22T01:04:46;99722.28;;;25.99;65.69
49342;BME280;35210;41.606;-87.602;2023-06-22T01:07:19;99715.84;;;25.80;66.15
49342;BME280;35210;41.606;-87.602;2023-06-22T01:09:57;99718.13;;;25.70;66.50
49342;BME280;35210;41.606;-87.602;2023-06-22T01:12:31;99721.03;;;25.62;67.14
49342;BME280;35210;41.606;-87.602;2023-06-22T01:15:07;99729.97;;;25.55;67.26
49342;BME280;35210;41.606;-87.602;2023-06-22T01:17:38;99722.47;;;25.44;67.87
49342;BME280;35210;41.606;-87.602;2023-06-22T01:20:11;99727.25;;;25.36;68.57
49342;BME280;35210;41.606;-87.602;2023-06-22T01:22:49;99719.34;;;25.34;68.93
49342;BME280;35210;41.606;-87.602;2023-06-22T01:25:31;99722.66;;;25.36;68.57
49342;BME280;35210;41.606;-87.602;2023-06-22T01:28:11;99717.06;;;25.31;69.05
49342;BME280;35210;41.606;-87.602;2023-06-22T01:30:46;99722.47;;;25.31;69.20
49342;BME280;35210;41.606;-87.602;2023-06-22T01:33:19;99722.66;;;25.36;69.24
49342;BME280;35210;41.606;-87.602;2023-06-22T01:35:48;99713.09;;;25.40;69.08
49342;BME280;35210;41.606;-87.602;2023-06-22T01:38:16;99708.94;;;25.44;68.70
49342;BME280;35210;41.606;-87.602;2023-06-22T01:40:44;99713.09;;;25.40;68.48
49342;BME280;35210;41.606;-87.602;2023-06-22T01:43:13;99712.06;;;25.28;69.01
49342;BME280;35210;41.606;-87.602;2023-06-22T01:45:41;99705.19;;;25.12;69.91
49342;BME280;35210;41.606;-87.602;2023-06-22T01:48:11;99707.69;;;25.01;70.58
49342;BME280;35210;41.606;-87.602;2023-06-22T01:50:40;99698.31;;;24.97;70.74
49342;BME280;35210;41.606;-87.602;2023-06-22T01:53:09;99706.78;;;24.94;71.22
49342;BME280;35210;41.606;-87.602;2023-06-22T01:55:37;99696.88;;;25.01;71.02
49342;BME280;35210;41.606;-87.602;2023-06-22T01:58:05;99702.69;;;25.04;70.93
49342;BME280;35210;41.606;-87.602;2023-06-22T02:00:37;99694.41;;;25.12;70.22
49342;BME280;35210;41.606;-87.602;2023-06-22T02:03:10;99698.97;;;25.12;70.56
49342;BME280;35210;41.606;-87.602;2023-06-22T02:05:49;99703.97;;;25.15;70.52
49342;BME280;35210;41.606;-87.602;2023-06-22T02:08:21;99699.81;;;25.19;70.35
49342;BME280;35210;41.606;-87.602;2023-06-22T02:10:51;99694.41;;;25.19;70.36
49342;BME280;35210;41.606;-87.602;2023-06-22T02:13:21;99697.91;;;25.26;70.13
49342;BME280;35210;41.606;-87.602;2023-06-22T02:15:49;99703.53;;;25.31;69.92
49342;BME280;35210;41.606;-87.602;2023-06-22T02:18:18;99700.22;;;25.36;69.68
49342;BME280;35210;41.606;-87.602;2023-06-22T02:20:48;99697.94;;;25.39;69.63
49342;BME280;35210;41.606;-87.602;2023-06-22T02:25:17;99701.06;;;25.49;68.92
49342;BME280;35210;41.606;-87.602;2023-06-22T02:27:45;99699.38;;;25.35;69.54
49342;BME280;35210;41.606;-87.602;2023-06-22T02:30:14;99695.63;;;25.30;69.99
49342;BME280;35210;41.606;-87.602;2023-06-22T02:32:42;99709.38;;;25.41;69.40
49342;BME280;35210;41.606;-87.602;2023-06-22T02:35:11;99697.72;;;25.34;69.49
49342;BME280;35210;41.606;-87.602;2023-06-22T02:37:39;99703.13;;;25.28;69.75
49342;BME280;35210;41.606;-87.602;2023-06-22T02:40:09;99695.22;;;25.26;70.01
49342;BME280;35210;41.606;-87.602;2023-06-22T02:42:40;99695.66;;;25.23;70.21
49342;BME280;35210;41.606;-87.602;2023-06-22T02:45:09;99696.50;;;25.24;70.24
49342;BME280;35210;41.606;-87.602;2023-06-22T02:47:37;99695.66;;;25.23;70.21
49342;BME280;35210;41.606;-87.602;2023-06-22T02:50:06;99694.63;;;25.24;70.10
49342;BME280;35210;41.606;-87.602;2023-06-22T02:52:34;99697.09;;;25.26;69.95
49342;BME280;35210;41.606;-87.602;2023-06-22T02:55:02;99684.81;;;25.30;69.86
49342;BME280;35210;41.606;-87.602;2023-06-22T02:57:30;99678.16;;;25.32;69.80
49342;BME280;35210;41.606;-87.602;2023-06-22T03:00:02;99683.56;;;25.32;69.69
49342;BME280;35210;41.606;-87.602;2023-06-22T03:02:39;99685.44;;;25.32;69.75
49342;BME280;35210;41.606;-87.602;2023-06-22T03:05:08;99681.91;;;25.31;69.80
49342;BME280;35210;41.606;-87.602;2023-06-22T03:07:40;99680.25;;;25.30;69.99
49342;BME280;35210;41.606;-87.602;2023-06-22T03:10:09;99683.56;;;25.32;69.76
49342;BME280;35210;41.606;-87.602;2023-06-22T03:12:38;99676.31;;;25.33;69.74
49342;BME280;35210;41.606;-87.602;2023-06-22T03:15:10;99669.84;;;25.34;69.69
49342;BME280;35210;41.606;-87.602;2023-06-22T03:17:39;99668.19;;;25.26;69.98
49342;BME280;35210;41.606;-87.602;2023-06-22T03:20:08;99670.28;;;25.24;69.91
49342;BME280;35210;41.606;-87.602;2023-06-22T03:22:37;99669.25;;;25.25;69.95
49342;BME280;35210;41.606;-87.602;2023-06-22T03:25:06;99674.84;;;25.30;69.62
49342;BME280;35210;41.606;-87.602;2023-06-22T03:27:39;99673.84;;;25.25;69.77
49342;BME280;35210;41.606;-87.602;2023-06-22T03:30:10;99676.13;;;25.21;69.79
49342;BME280;35210;41.606;-87.602;2023-06-22T03:32:39;99678.19;;;25.12;70.24
49342;BME280;35210;41.606;-87.602;2023-06-22T03:35:09;99676.94;;;25.08;70.48
49342;BME280;35210;41.606;-87.602;2023-06-22T03:37:39;99678.59;;;25.03;70.70
49342;BME280;35210;41.606;-87.602;2023-06-22T03:40:08;99681.91;;;24.98;70.80
49342;BME280;35210;41.606;-87.602;2023-06-22T03:42:36;99674.16;;;24.95;70.94
49342;BME280;35210;41.606;-87.602;2023-06-22T03:45:05;99671.47;;;24.95;70.88
49342;BME280;35210;41.606;-87.602;2023-06-22T03:47:35;99671.25;;;24.90;71.14
49342;BME280;35210;41.606;-87.602;2023-06-22T03:50:04;99672.28;;;24.89;71.27
49342;BME280;35210;41.606;-87.602;2023-06-22T03:52:33;99664.81;;;24.84;71.26
49342;BME280;35210;41.606;-87.602;2023-06-22T03:55:01;99663.97;;;24.84;71.37
49342;BME280;35210;41.606;-87.602;2023-06-22T03:57:29;99656.47;;;24.79;71.74
49342;BME280;35210;41.606;-87.602;2023-06-22T03:59:57;99664.16;;;24.76;71.73
49342;BME280;35210;41.606;-87.602;2023-06-22T04:02:26;99650.84;;;24.74;71.92
49342;BME280;35210;41.606;-87.602;2023-06-22T04:04:55;99650.22;;;24.72;71.92
49342;BME280;35210;41.606;-87.602;2023-06-22T04:07:24;99655.19;;;24.69;72.10
49342;BME280;35210;41.606;-87.602;2023-06-22T04:09:52;99650.63;;;24.63;72.66
49342;BME280;35210;41.606;-87.602;2023-06-22T04:12:20;99658.09;;;24.61;72.99
49342;BME280;35210;41.606;-87.602;2023-06-22T04:14:48;99652.25;;;24.57;72.99
49342;BME280;35210;41.606;-87.602;2023-06-22T04:17:16;99658.06;;;24.54;72.92
49342;BME280;35210;41.606;-87.602;2023-06-22T04:19:45;99647.06;;;24.49;73.23
49342;BME280;35210;41.606;-87.602;2023-06-22T04:22:15;99644.78;;;24.46;73.37
49342;BME280;35210;41.606;-87.602;2023-06-22T04:24:43;99645.59;;;24.46;73.38
49342;BME280;35210;41.606;-87.602;2023-06-22T04:27:11;99642.28;;;24.44;73.45
49342;BME280;35210;41.606;-87.602;2023-06-22T04:29:39;99643.50;;;24.42;73.68
49342;BME280;35210;41.606;-87.602;2023-06-22T04:32:15;99636.25;;;24.42;73.85
49342;BME280;35210;41.606;-87.602;2023-06-22T04:34:43;99631.06;;;24.41;73.60
49342;BME280;35210;41.606;-87.602;2023-06-22T04:37:11;99626.50;;;24.41;73.59
49342;BME280;35210;41.606;-87.602;2023-06-22T04:39:43;99640.59;;;24.37;74.03
49342;BME280;35210;41.606;-87.602;2023-06-22T04:42:12;99639.31;;;24.33;74.83
49342;BME280;35210;41.606;-87.602;2023-06-22T04:44:41;99633.31;;;24.31;74.94
49342;BME280;35210;41.606;-87.602;2023-06-22T04:47:09;99634.53;;;24.28;75.06
49342;BME280;35210;41.606;-87.602;2023-06-22T04:49:37;99622.28;;;24.26;74.97
49342;BME280;35210;41.606;-87.602;2023-06-22T04:52:07;99621.41;;;24.25;74.60
49342;BME280;35210;41.606;-87.602;2023-06-22T04:54:37;99620.22;;;24.28;74.26
49342;BME280;35210;41.606;-87.602;2023-06-22T04:57:08;99624.72;;;24.20;74.78
49342;BME280;35210;41.606;-87.602;2023-06-22T04:59:37;99615.16;;;24.18;74.76
49342;BME280;35210;41.606;-87.602;2023-06-22T05:02:07;99615.56;;;24.15;75.24
49342;BME280;35210;41.606;-87.602;2023-06-22T05:04:36;99614.09;;;24.12;75.76
49342;BME280;35210;41.606;-87.602;2023-06-22T05:07:05;99616.78;;;24.12;75.79
49342;BME280;35210;41.606;-87.602;2023-06-22T05:09:33;99612.63;;;24.10;75.90
49342;BME280;35210;41.606;-87.602;2023-06-22T05:12:02;99607.44;;;24.08;76.03
49342;BME280;35210;41.606;-87.602;2023-06-22T05:14:32;99608.28;;;24.09;76.13
49342;BME280;35210;41.606;-87.602;2023-06-22T05:17:00;99599.34;;;24.08;76.56
49342;BME280;35210;41.606;-87.602;2023-06-22T05:19:30;99605.13;;;24.05;77.08
49342;BME280;35210;41.606;-87.602;2023-06-22T05:21:59;99600.16;;;24.02;77.30
49342;BME280;35210;41.606;-87.602;2023-06-22T05:24:27;99604.72;;;24.02;77.11
49342;BME280;35210;41.606;-87.602;2023-06-22T05:26:56;99585.19;;;24.00;77.06
49342;BME280;35210;41.606;-87.602;2023-06-22T05:29:24;99589.97;;;23.98;77.24
49342;BME280;35210;41.606;-87.602;2023-06-22T05:31:54;99583.09;;;23.95;77.18
49342;BME280;35210;41.606;-87.602;2023-06-22T05:34:22;99579.78;;;23.93;77.39
49342;BME280;35210;41.606;-87.602;2023-06-22T05:36:50;99578.09;;;23.92;77.53
49342;BME280;35210;41.606;-87.602;2023-06-22T05:39:18;99583.50;;;23.92;77.68
49342;BME280;35210;41.606;-87.602;2023-06-22T05:41:47;99582.28;;;23.95;77.50
49342;BME280;35210;41.606;-87.602;2023-06-22T05:44:15;99588.28;;;23.97;77.42
49342;BME280;35210;41.606;-87.602;2023-06-22T05:46:44;99590.97;;;23.90;78.50
49342;BME280;35210;41.606;-87.602;2023-06-22T05:49:15;99586.38;;;23.84;78.74
49342;BME280;35210;41.606;-87.602;2023-06-22T05:51:43;99589.06;;;23.84;78.51
49342;BME280;35210;41.606;-87.602;2023-06-22T05:54:11;99589.06;;;23.84;78.37
49342;BME280;35210;41.606;-87.602;2023-06-22T05:56:41;99593.00;;;23.81;78.53
49342;BME280;35210;41.606;-87.602;2023-06-22T05:59:10;99592.16;;;23.81;78.16
49342;BME280;35210;41.606;-87.602;2023-06-22T06:01:38;99589.66;;;23.79;78.28
49342;BME280;35210;41.606;-87.602;2023-06-22T06:04:06;99588.81;;;23.79;78.28
49342;BME280;35210;41.606;-87.602;2023-06-22T06:06:37;99585.09;;;23.80;78.29
49342;BME280;35210;41.606;-87.602;2023-06-22T06:09:05;99593.19;;;23.80;78.48
49342;BME280;35210;41.606;-87.602;2023-06-22T06:11:33;99592.97;;;23.75;79.19
49342;BME280;35210;41.606;-87.602;2023-06-22T06:14:01;99593.38;;;23.72;79.49
49342;BME280;35210;41.606;-87.602;2023-06-22T06:16:30;99593.38;;;23.72;79.66
49342;BME280;35210;41.606;-87.602;2023-06-22T06:18:58;99591.91;;;23.69;80.07
49342;BME280;35210;41.606;-87.602;2023-06-22T06:21:26;99600.41;;;23.66;80.55
49342;BME280;35210;41.606;-87.602;2023-06-22T06:23:55;99596.44;;;23.62;80.58
49342;BME280;35210;41.606;-87.602;2023-06-22T06:26:24;99592.91;;;23.62;80.40
49342;BME280;35210;41.606;-87.602;2023-06-22T06:28:56;99585.59;;;23.55;80.46
49342;BME280;35210;41.606;-87.602;2023-06-22T06:31:25;99586.63;;;23.54;80.39
49342;BME280;35210;41.606;-87.602;2023-06-22T06:33:53;99587.84;;;23.52;80.78
49342;BME280;35210;41.606;-87.602;2023-06-22T06:36:22;99587.19;;;23.50;81.06
49342;BME280;35210;41.606;-87.602;2023-06-22T06:38:50;99584.69;;;23.48;81.24
49342;BME280;35210;41.606;-87.602;2023-06-22T06:41:20;99584.06;;;23.46;81.10
49342;BME280;35210;41.606;-87.602;2023-06-22T06:43:49;99586.75;;;23.46;81.37
49342;BME280;35210;41.606;-87.602;2023-06-22T06:46:18;99577.84;;;23.46;81.41
49342;BME280;35210;41.606;-87.602;2023-06-22T06:48:47;99586.97;;;23.45;81.66
49342;BME280;35210;41.606;-87.602;2023-06-22T06:51:15;99591.50;;;23.44;81.74
49342;BME280;35210;41.606;-87.602;2023-06-22T06:53:44;99589.84;;;23.43;81.84
49342;BME280;35210;41.606;-87.602;2023-06-22T06:56:12;99590.69;;;23.44;82.44
49342;BME280;35210;41.606;-87.602;2023-06-22T06:58:42;99583.63;;;23.43;82.53
49342;BME280;35210;41.606;-87.602;2023-06-22T07:01:11;99574.72;;;23.42;82.60
49342;BME280;35210;41.606;-87.602;2023-06-22T07:03:40;99584.06;;;23.46;82.90
49342;BME280;35210;41.606;-87.602;2023-06-22T07:06:09;99579.25;;;23.42;82.70
49342;BME280;35210;41.606;-87.602;2023-06-22T07:08:37;99579.47;;;23.40;82.94
49342;BME280;35210;41.606;-87.602;2023-06-22T07:11:06;99572.22;;;23.41;83.08
49342;BME280;35210;41.606;-87.602;2023-06-22T07:13:34;99574.84;;;23.34;83.29
49342;BME280;35210;41.606;-87.602;2023-06-22T07:16:04;99567.81;;;23.33;83.23
49342;BME280;35210;41.606;-87.602;2023-06-22T07:18:32;99579.63;;;23.32;83.33
49342;BME280;35210;41.606;-87.602;2023-06-22T07:21:00;99587.69;;;23.32;83.48
49342;BME280;35210;41.606;-87.602;2023-06-22T07:23:29;99594.75;;;23.33;82.86
49342;BME280;35210;41.606;-87.602;2023-06-22T07:25:58;99594.56;;;23.35;83.34
49342;BME280;35210;41.606;-87.602;2023-06-22T07:28:28;99594.75;;;23.33;83.09
49342;BME280;35210;41.606;-87.602;2023-06-22T07:30:57;99588.34;;;23.34;82.93
49342;BME280;35210;41.606;-87.602;2023-06-22T07:33:26;99599.75;;;23.36;83.28
49342;BME280;35210;41.606;-87.602;2023-06-22T07:35:54;99599.75;;;23.36;83.00
49342;BME280;35210;41.606;-87.602;2023-06-22T07:38:23;99603.47;;;23.35;83.36
49342;BME280;35210;41.606;-87.602;2023-06-22T07:40:51;99594.75;;;23.33;83.42
49342;BME280;35210;41.606;-87.602;2023-06-22T07:43:19;99606.16;;;23.35;83.38
49342;BME280;35210;41.606;-87.602;2023-06-22T07:45:49;99608.84;;;23.35;83.77
49342;BME280;35210;41.606;-87.602;2023-06-22T07:48:21;99614.25;;;23.35;83.63
49342;BME280;35210;41.606;-87.602;2023-06-22T07:50:50;99614.25;;;23.35;83.84
49342;BME280;35210;41.606;-87.602;2023-06-22T07:53:19;99606.16;;;23.35;83.98
49342;BME280;35210;41.606;-87.602;2023-06-22T07:55:48;99617.97;;;23.34;84.39
49342;BME280;35210;41.606;-87.602;2023-06-22T07:58:16;99622.34;;;23.35;84.37
49342;BME280;35210;41.606;-87.602;2023-06-22T08:00:45;99614.63;;;23.32;84.14
49342;BME280;35210;41.606;-87.602;2023-06-22T08:03:13;99613.81;;;23.32;84.41
49342;BME280;35210;41.606;-87.602;2023-06-22T08:05:41;99607.59;;;23.31;84.36
49342;BME280;35210;41.606;-87.602;2023-06-22T08:08:10;99607.59;;;23.31;84.23
49342;BME280;35210;41.606;-87.602;2023-06-22T08:10:40;99602.19;;;23.31;84.14
49342;BME280;35210;41.606;-87.602;2023-06-22T08:13:10;99606.75;;;23.31;84.26
49342;BME280;35210;41.606;-87.602;2023-06-22T08:15:38;99595.13;;;23.30;84.57
49342;BME280;35210;41.606;-87.602;2023-06-22T08:18:07;99594.69;;;23.26;84.54
49342;BME280;35210;41.606;-87.602;2023-06-22T08:20:35;99592.41;;;23.23;85.18
49342;BME280;35210;41.606;-87.602;2023-06-22T08:23:03;99589.31;;;23.26;85.12
49342;BME280;35210;41.606;-87.602;2023-06-22T08:25:34;99580.59;;;23.24;84.75
49342;BME280;35210;41.606;-87.602;2023-06-22T08:28:03;99579.72;;;23.17;85.04
49342;BME280;35210;41.606;-87.602;2023-06-22T08:30:32;99589.66;;;23.17;85.02
49342;BME280;35210;41.606;-87.602;2023-06-22T08:33:00;99593.75;;;23.13;85.23
49342;BME280;35210;41.606;-87.602;2023-06-22T08:35:28;99595.44;;;23.14;85.14
49342;BME280;35210;41.606;-87.602;2023-06-22T08:37:56;99602.88;;;23.12;85.35
49342;BME280;35210;41.606;-87.602;2023-06-22T08:40:26;99602.22;;;23.10;85.59
49342;BME280;35210;41.606;-87.602;2023-06-22T08:42:56;99605.75;;;23.10;85.60
49342;BME280;35210;41.606;-87.602;2023-06-22T08:45:25;99604.66;;;23.05;85.92
49342;BME280;35210;41.606;-87.602;2023-06-22T08:47:53;99611.53;;;23.07;85.85
49342;BME280;35210;41.606;-87.602;2023-06-22T08:50:21;99613.41;;;23.07;85.57
49342;BME280;35210;41.606;-87.602;2023-06-22T08:52:49;99614.00;;;23.02;86.11
49342;BME280;35210;41.606;-87.602;2023-06-22T08:55:18;99609.19;;;22.98;86.18
49342;BME280;35210;41.606;-87.602;2023-06-22T08:57:46;99609.41;;;22.96;86.16
49342;BME280;35210;41.606;-87.602;2023-06-22T09:00:17;99611.44;;;22.94;86.15
49342;BME280;35210;41.606;-87.602;2023-06-22T09:02:46;99610.63;;;22.93;85.98
49342;BME280;35210;41.606;-87.602;2023-06-22T09:05:15;99608.13;;;22.92;85.73
49342;BME280;35210;41.606;-87.602;2023-06-22T09:07:43;99618.06;;;22.91;85.89
49342;BME280;35210;41.606;-87.602;2023-06-22T09:10:12;99611.81;;;22.91;85.79
49342;BME280;35210;41.606;-87.602;2023-06-22T09:12:40;99606.44;;;22.91;85.90
49342;BME280;35210;41.606;-87.602;2023-06-22T09:15:09;99623.19;;;22.86;86.05
49342;BME280;35210;41.606;-87.602;2023-06-22T09:17:40;99608.88;;;22.86;86.24
49342;BME280;35210;41.606;-87.602;2023-06-22T09:20:09;99619.84;;;22.84;86.12
49342;BME280;35210;41.606;-87.602;2023-06-22T09:22:37;99623.75;;;22.82;86.29
49342;BME280;35210;41.606;-87.602;2023-06-22T09:25:06;99638.44;;;22.79;86.65
49342;BME280;35210;41.606;-87.602;2023-06-22T09:27:34;99639.44;;;22.78;86.73
49342;BME280;35210;41.606;-87.602;2023-06-22T09:30:03;99642.31;;;22.77;86.82
49342;BME280;35210;41.606;-87.602;2023-06-22T09:32:31;99653.25;;;22.75;86.81
49342;BME280;35210;41.606;-87.602;2023-06-22T09:35:03;99652.63;;;22.73;86.66
49342;BME280;35210;41.606;-87.602;2023-06-22T09:37:34;99647.63;;;22.70;86.33
49342;BME280;35210;41.606;-87.602;2023-06-22T09:40:03;99648.00;;;22.67;87.04
49342;BME280;35210;41.606;-87.602;2023-06-22T09:42:35;99650.44;;;22.62;87.32
49342;BME280;35210;41.606;-87.602;2023-06-22T09:45:03;99654.53;;;22.58;87.66
49342;BME280;35210;41.606;-87.602;2023-06-22T09:47:31;99653.25;;;22.54;87.91
49342;BME280;35210;41.606;-87.602;2023-06-22T09:50:01;99664.19;;;22.52;88.04
49342;BME280;35210;41.606;-87.602;2023-06-22T09:52:29;99659.00;;;22.51;88.17
49342;BME280;35210;41.606;-87.602;2023-06-22T09:54:57;99658.53;;;22.47;88.39
49342;BME280;35210;41.606;-87.602;2023-06-22T09:57:26;99663.47;;;22.44;88.32
49342;BME280;35210;41.606;-87.602;2023-06-22T09:59:54;99666.53;;;22.41;88.53
49342;BME280;35210;41.606;-87.602;2023-06-22T10:02:23;99674.78;;;22.39;88.66
49342;BME280;35210;41.606;-87.602;2023-06-22T10:04:51;99667.94;;;22.37;88.87
49342;BME280;35210;41.606;-87.602;2023-06-22T10:07:21;99669.13;;;22.34;89.06
49342;BME280;35210;41.606;-87.602;2023-06-22T10:09:49;99669.97;;;22.35;88.71
49342;BME280;35210;41.606;-87.602;2023-06-22T10:12:17;99681.94;;;22.32;88.64
49342;BME280;35210;41.606;-87.602;2023-06-22T10:14:46;99679.44;;;22.30;88.50
49342;BME280;35210;41.606;-87.602;2023-06-22T10:17:14;99686.69;;;22.30;88.74
49342;BME280;35210;41.606;-87.602;2023-06-22T10:19:42;99680.69;;;22.28;88.95
49342;BME280;35210;41.606;-87.602;2023-06-22T10:22:10;99685.59;;;22.24;89.24
49342;BME280;35210;41.606;-87.602;2023-06-22T10:24:40;99686.81;;;22.22;89.31
49342;BME280;35210;41.606;-87.602;2023-06-22T10:27:11;99684.94;;;22.22;89.40
49342;BME280;35210;41.606;-87.602;2023-06-22T10:29:39;99688.00;;;22.19;89.48
49342;BME280;35210;41.606;-87.602;2023-06-22T10:32:08;99690.34;;;22.22;89.50
49342;BME280;35210;41.606;-87.602;2023-06-22T10:34:36;99691.34;;;22.21;89.32
49342;BME280;35210;41.606;-87.602;2023-06-22T10:37:05;99697.75;;;22.20;89.47
49342;BME280;35210;41.606;-87.602;2023-06-22T10:39:33;99690.72;;;22.19;89.51
49342;BME280;35210;41.606;-87.602;2023-06-22T10:42:03;99696.28;;;22.18;89.65
49342;BME280;35210;41.606;-87.602;2023-06-22T10:44:31;99696.09;;;22.19;89.51
49342;BME280;35210;41.606;-87.602;2023-06-22T10:46:59;99694.59;;;22.17;89.66
49342;BME280;35210;41.606;-87.602;2023-06-22T10:49:28;99693.59;;;22.18;89.43
49342;BME280;35210;41.606;-87.602;2023-06-22T10:51:56;99692.09;;;22.15;89.81
49342;BME280;35210;41.606;-87.602;2023-06-22T10:54:24;99682.34;;;22.14;89.91
49342;BME280;35210;41.606;-87.602;2023-06-22T10:56:52;99688.38;;;22.16;90.07
49342;BME280;35210;41.606;-87.602;2023-06-22T10:59:22;99690.63;;;22.13;89.97
49342;BME280;35210;41.606;-87.602;2023-06-22T11:01:50;99703.88;;;22.14;90.03
49342;BME280;35210;41.606;-87.602;2023-06-22T11:04:18;99699.69;;;22.12;89.86
49342;BME280;35210;41.606;-87.602;2023-06-22T11:06:47;99694.97;;;22.14;89.90
49342;BME280;35210;41.606;-87.602;2023-06-22T11:09:15;99696.19;;;22.11;90.16
49342;BME280;35210;41.606;-87.602;2023-06-22T11:11:47;99696.19;;;22.11;90.50
49342;BME280;35210;41.606;-87.602;2023-06-22T11:14:15;99700.53;;;22.12;90.70
49342;BME280;35210;41.606;-87.602;2023-06-22T11:16:44;99704.25;;;22.11;90.70
49342;BME280;35210;41.606;-87.602;2023-06-22T11:19:13;99708.59;;;22.12;90.69
49342;BME280;35210;41.606;-87.602;2023-06-22T11:21:41;99712.31;;;22.11;90.84
49342;BME280;35210;41.606;-87.602;2023-06-22T11:24:09;99721.88;;;22.14;90.99
49342;BME280;35210;41.606;-87.602;2023-06-22T11:26:37;99720.00;;;22.14;90.89
49342;BME280;35210;41.606;-87.602;2023-06-22T11:29:05;99723.53;;;22.15;91.17
49342;BME280;35210;41.606;-87.602;2023-06-22T11:31:34;99721.69;;;22.15;91.64
49342;BME280;35210;41.606;-87.602;2023-06-22T11:34:04;99721.50;;;22.17;92.22
49342;BME280;35210;41.606;-87.602;2023-06-22T11:36:32;99721.50;;;22.17;92.55
49342;BME280;35210;41.606;-87.602;2023-06-22T11:39:01;99725.66;;;22.19;92.90
49342;BME280;35210;41.606;-87.602;2023-06-22T11:41:31;99717.22;;;22.22;92.65
49342;BME280;35210;41.606;-87.602;2023-06-22T11:43:59;99708.00;;;22.32;92.65
49342;BME280;35210;41.606;-87.602;2023-06-22T11:46:28;99710.88;;;22.45;93.35
49342;BME280;35210;41.606;-87.602;2023-06-22T11:48:56;99708.56;;;22.42;93.47
49342;BME280;35210;41.606;-87.602;2023-06-22T11:51:25;99713.75;;;22.43;92.60
49342;BME280;35210;41.606;-87.602;2023-06-22T11:53:54;99716.53;;;22.50;90.55
49342;BME280;35210;41.606;-87.602;2023-06-22T11:56:22;99719.88;;;22.52;90.14
49342;BME280;35210;41.606;-87.602;2023-06-22T11:58:50;99723.56;;;22.51;90.21
49342;BME280;35210;41.606;-87.602;2023-06-22T12:01:18;99722.38;;;22.53;89.87
49342;BME280;35210;41.606;-87.602;2023-06-22T12:03:47;99719.50;;;22.55;89.38
49342;BME280;35210;41.606;-87.602;2023-06-22T12:06:15;99727.91;;;22.67;88.11
49342;BME280;35210;41.606;-87.602;2023-06-22T12:08:45;99730.13;;;22.78;87.86
49342;BME280;35210;41.606;-87.602;2023-06-22T12:11:13;99725.31;;;22.88;85.99
49342;BME280;35210;41.606;-87.602;2023-06-22T12:13:41;99727.44;;;22.92;86.00
49342;BME280;35210;41.606;-87.602;2023-06-22T12:16:09;99721.13;;;23.07;85.39
49342;BME280;35210;41.606;-87.602;2023-06-22T12:18:38;99718.94;;;23.17;84.08
49342;BME280;35210;41.606;-87.602;2023-06-22T12:21:06;99717.66;;;23.34;82.06
49342;BME280;35210;41.606;-87.602;2023-06-22T12:23:34;99726.19;;;23.38;82.41
49342;BME280;35210;41.606;-87.602;2023-06-22T12:26:04;99724.22;;;23.46;82.75
49342;BME280;35210;41.606;-87.602;2023-06-22T12:28:32;99725.97;;;23.54;83.02
49342;BME280;35210;41.606;-87.602;2023-06-22T12:31:01;99727.88;;;23.60;82.16
49342;BME280;35210;41.606;-87.602;2023-06-22T12:33:29;99720.03;;;23.65;81.45
49342;BME280;35210;41.606;-87.602;2023-06-22T12:35:58;99726.53;;;23.71;80.73
49342;BME280;35210;41.606;-87.602;2023-06-22T12:38:26;99730.72;;;23.80;79.46
49342;BME280;35210;41.606;-87.602;2023-06-22T12:40:54;99736.53;;;23.83;79.89
49342;BME280;35210;41.606;-87.602;2023-06-22T12:43:24;99742.44;;;23.93;78.62
49342;BME280;35210;41.606;-87.602;2023-06-22T12:45:52;99732.91;;;23.98;77.16
49342;BME280;35210;41.606;-87.602;2023-06-22T12:48:21;99735.00;;;24.02;76.15
49342;BME280;35210;41.606;-87.602;2023-06-22T12:50:51;99733.00;;;24.11;75.48